Time,TemperatureF,DewpointF,PressureIn,WindDirection,WindDirectionDegrees,WindSpeedMPH,WindSpeedGustMPH,Humidity,HourlyPrecipIn,Conditions,Clouds,dailyrainin,SoftwareType,DateUTC
2013-04-28 00:01:00,54.4,47.0,29.95,SSE,163,0.0,0.0,76,0.00,,,0.00,Wunderground v.1.15,2013-04-28 05:01:00,
2013-04-28 00:10:00,54.5,47.1,29.95,SSE,165,0.0,0.0,76,0.00,,,0.00,Wunderground v.1.15,2013-04-28 05:10:00,
2013-04-28 00:15:00,54.5,47.1,29.95,South,185,0.0,0.0,76,0.00,,,0.00,Wunderground v.1.15,2013-04-28 05:15:00,
2013-04-28 00:25:00,54.3,47.2,29.95,SSE,161,0.0,0.0,77,0.00,,,0.00,Wunderground v.1.15,2013-04-28 05:25:00,
2013-04-28 00:35:00,54.2,47.1,29.95,South,187,0.0,0.0,77,0.00,,,0.00,Wunderground v.1.15,2013-04-28 05:35:00,
2013-04-28 00:41:00,53.9,46.9,29.95,SW,221,0.0,0.0,77,0.00,,,0.00,Wunderground v.1.15,2013-04-28 05:41:00,
2013-04-28 00:50:00,53.6,46.9,29.95,SSE,148,0.0,0.0,78,0.00,,,0.00,Wunderground v.1.15,2013-04-28 05:50:00,
2013-04-28 00:55:00,53.4,46.7,29.95,SSE,150,0.0,0.0,78,0.00,,,0.00,Wunderground v.1.15,2013-04-28 05:55:00,
2013-04-28 01:05:00,53.0,46.7,29.95,SE,134,0.0,0.0,79,0.00,,,0.00,Wunderground v.1.15,2013-04-28 06:05:00,
2013-04-28 01:11:00,52.8,46.5,29.96,SSW,203,0.0,0.0,79,0.00,,,0.00,Wunderground v.1.15,2013-04-28 06:11:00,
2013-04-28 01:20:00,52.4,46.1,29.95,SSE,156,0.0,0.0,79,0.00,,,0.00,Wunderground v.1.15,2013-04-28 06:20:00,
2013-04-28 01:25:00,52.3,46.3,29.95,SSE,165,0.0,0.0,80,0.00,,,0.00,Wunderground v.1.15,2013-04-28 06:25:00,
2013-04-28 01:30:00,52.2,46.2,29.95,SSE,156,0.0,0.0,80,0.00,,,0.00,Wunderground v.1.15,2013-04-28 06:30:00,
2013-04-28 01:40:00,52.0,46.3,29.95,SSE,166,0.0,0.0,81,0.00,,,0.00,Wunderground v.1.15,2013-04-28 06:40:00,
2013-04-28 01:50:00,51.7,46.1,29.95,SW,218,0.0,0.0,81,0.00,,,0.00,Wunderground v.1.15,2013-04-28 06:50:00,
2013-04-28 01:55:00,51.5,45.9,29.95,SSE,153,0.0,0.0,81,0.00,,,0.00,Wunderground v.1.15,2013-04-28 06:55:00,
2013-04-28 02:05:00,51.3,46.0,29.95,SSW,199,0.0,0.0,82,0.00,,,0.00,Wunderground v.1.15,2013-04-28 07:05:00,
2013-04-28 02:10:00,51.2,45.9,29.95,SSE,148,0.0,0.0,82,0.00,,,0.00,Wunderground v.1.15,2013-04-28 07:10:00,
2013-04-28 02:15:00,51.1,45.8,29.95,SSE,158,0.0,0.0,82,0.00,,,0.00,Wunderground v.1.15,2013-04-28 07:15:00,
2013-04-28 02:25:00,50.8,45.8,29.94,SSE,162,0.0,0.0,83,0.00,,,0.00,Wunderground v.1.15,2013-04-28 07:25:00,
2013-04-28 02:30:00,50.8,45.8,29.94,SSE,167,0.0,0.0,83,0.00,,,0.00,Wunderground v.1.15,2013-04-28 07:30:00,
2013-04-28 02:40:00,50.6,45.6,29.94,South,185,0.0,0.0,83,0.00,,,0.00,Wunderground v.1.15,2013-04-28 07:40:00,
2013-04-28 02:45:00,50.5,45.5,29.94,SE,139,0.0,0.0,83,0.00,,,0.00,Wunderground v.1.15,2013-04-28 07:45:00,
2013-04-28 02:55:00,50.3,45.6,29.94,SE,146,0.0,0.0,84,0.00,,,0.00,Wunderground v.1.15,2013-04-28 07:55:00,
2013-04-28 03:05:00,50.0,45.4,29.93,SE,145,0.0,0.0,84,0.00,,,0.00,Wunderground v.1.15,2013-04-28 08:05:00,
2013-04-28 03:11:00,49.9,45.6,29.92,SE,144,0.0,0.0,85,0.00,,,0.00,Wunderground v.1.15,2013-04-28 08:11:00,
2013-04-28 03:20:00,49.9,45.6,29.93,SSE,159,0.0,0.0,85,0.00,,,0.00,Wunderground v.1.15,2013-04-28 08:20:00,
2013-04-28 03:25:00,49.9,45.9,29.93,South,177,0.0,0.0,86,0.00,,,0.00,Wunderground v.1.15,2013-04-28 08:25:00,
2013-04-28 03:30:00,49.9,45.9,29.93,SE,145,0.0,0.0,86,0.00,,,0.00,Wunderground v.1.15,2013-04-28 08:30:00,
2013-04-28 03:40:00,49.7,45.7,29.92,SE,138,0.0,0.0,86,0.00,,,0.00,Wunderground v.1.15,2013-04-28 08:40:00,
2013-04-28 03:50:00,49.2,45.2,29.92,SSE,165,0.0,0.0,86,0.00,,,0.00,Wunderground v.1.15,2013-04-28 08:50:00,
2013-04-28 03:55:00,48.9,44.9,29.92,SE,127,0.0,0.0,86,0.00,,,0.00,Wunderground v.1.15,2013-04-28 08:55:00,
2013-04-28 04:05:00,48.4,44.7,29.92,SSE,161,0.0,0.0,87,0.00,,,0.00,Wunderground v.1.15,2013-04-28 09:05:00,
2013-04-28 04:15:00,48.1,44.7,29.92,SE,136,0.0,0.0,88,0.00,,,0.00,Wunderground v.1.15,2013-04-28 09:15:00,
2013-04-28 04:20:00,48.1,45.0,29.92,SSE,160,0.0,0.0,89,0.00,,,0.00,Wunderground v.1.15,2013-04-28 09:20:00,
2013-04-28 04:30:00,48.0,44.9,29.92,SE,145,0.0,0.0,89,0.00,,,0.00,Wunderground v.1.15,2013-04-28 09:30:00,
2013-04-28 04:35:00,47.9,44.8,29.92,SSE,160,0.0,0.0,89,0.00,,,0.00,Wunderground v.1.15,2013-04-28 09:35:00,
2013-04-28 04:40:00,47.8,44.7,29.92,SE,142,0.0,0.0,89,0.00,,,0.00,Wunderground v.1.15,2013-04-28 09:40:00,
2013-04-28 04:50:00,47.6,44.8,29.92,SSE,162,0.0,0.0,90,0.00,,,0.00,Wunderground v.1.15,2013-04-28 09:50:00,
2013-04-28 05:00:00,47.5,44.7,29.92,SE,132,0.0,0.0,90,0.00,,,0.00,Wunderground v.1.15,2013-04-28 10:00:00,
2013-04-28 05:05:00,47.4,44.9,29.92,SE,139,0.0,0.0,91,0.00,,,0.00,Wunderground v.1.15,2013-04-28 10:05:00,
2013-04-28 05:15:00,47.4,44.9,29.91,SE,129,0.0,0.0,91,0.00,,,0.00,Wunderground v.1.15,2013-04-28 10:15:00,
2013-04-28 05:20:00,47.3,44.8,29.91,SSE,155,0.0,0.0,91,0.00,,,0.00,Wunderground v.1.15,2013-04-28 10:20:00,
2013-04-28 05:25:00,47.2,44.7,29.91,SSE,160,0.0,0.0,91,0.00,,,0.00,Wunderground v.1.15,2013-04-28 10:25:00,
2013-04-28 05:35:00,47.3,44.8,29.91,SE,146,0.0,0.0,91,0.00,,,0.00,Wunderground v.1.15,2013-04-28 10:35:00,
2013-04-28 05:40:00,47.2,44.7,29.91,SSE,165,0.0,0.0,91,0.00,,,0.00,Wunderground v.1.15,2013-04-28 10:40:00,
2013-04-28 05:50:00,47.1,44.9,29.90,SE,146,0.0,0.0,92,0.00,,,0.00,Wunderground v.1.15,2013-04-28 10:50:00,
2013-04-28 06:00:00,47.1,44.9,29.91,SE,132,0.0,0.0,92,0.00,,,0.00,Wunderground v.1.15,2013-04-28 11:00:00,
2013-04-28 06:05:00,47.1,44.9,29.91,SSE,150,0.0,0.0,92,0.00,,,0.00,Wunderground v.1.15,2013-04-28 11:05:00,
2013-04-28 06:15:00,47.0,44.8,29.91,South,170,0.0,0.0,92,0.00,,,0.00,Wunderground v.1.15,2013-04-28 11:15:00,
2013-04-28 06:20:00,46.9,44.7,29.90,SSW,201,0.0,0.0,92,0.00,,,0.00,Wunderground v.1.15,2013-04-28 11:20:00,
2013-04-28 06:31:00,46.8,44.6,29.90,SSE,162,0.0,0.0,92,0.00,,,0.00,Wunderground v.1.15,2013-04-28 11:31:00,
2013-04-28 06:40:00,46.6,44.4,29.90,SSE,162,0.0,0.0,92,0.00,,,0.00,Wunderground v.1.15,2013-04-28 11:40:00,
2013-04-28 06:50:00,46.5,44.3,29.90,SSE,153,0.0,0.0,92,0.00,,,0.00,Wunderground v.1.15,2013-04-28 11:50:00,
2013-04-28 07:00:00,46.5,44.6,29.91,SSE,155,0.0,0.0,93,0.00,,,0.00,Wunderground v.1.15,2013-04-28 12:00:00,
2013-04-28 07:05:00,46.5,44.6,29.91,SSE,160,0.0,0.0,93,0.00,,,0.00,Wunderground v.1.15,2013-04-28 12:05:00,
2013-04-28 07:15:00,46.7,44.8,29.91,SE,145,0.0,0.0,93,0.00,,,0.00,Wunderground v.1.15,2013-04-28 12:15:00,
2013-04-28 07:20:00,46.8,44.9,29.92,SSW,197,0.0,0.0,93,0.00,,,0.00,Wunderground v.1.15,2013-04-28 12:20:00,
2013-04-28 07:30:00,47.1,45.2,29.91,SSW,193,0.0,0.0,93,0.00,,,0.00,Wunderground v.1.15,2013-04-28 12:30:00,
2013-04-28 07:40:00,47.5,45.6,29.91,SSE,158,0.0,0.0,93,0.00,,,0.00,Wunderground v.1.15,2013-04-28 12:40:00,
2013-04-28 07:45:00,47.7,45.8,29.91,SSE,158,0.0,0.0,93,0.00,,,0.00,Wunderground v.1.15,2013-04-28 12:45:00,
2013-04-28 07:55:00,48.3,46.1,29.90,SSW,193,0.0,0.0,92,0.00,,,0.00,Wunderground v.1.15,2013-04-28 12:55:00,
2013-04-28 08:01:00,48.6,46.4,29.91,SSW,210,0.0,0.0,92,0.00,,,0.00,Wunderground v.1.15,2013-04-28 13:01:00,
2013-04-28 08:10:00,49.3,46.8,29.91,SSW,205,0.0,0.0,91,0.00,,,0.00,Wunderground v.1.15,2013-04-28 13:10:00,
2013-04-28 08:15:00,49.5,47.0,29.90,SE,136,0.0,0.0,91,0.00,,,0.00,Wunderground v.1.15,2013-04-28 13:15:00,
2013-04-28 08:25:00,50.4,47.6,29.90,SSE,165,0.0,0.0,90,0.00,,,0.00,Wunderground v.1.15,2013-04-28 13:25:00,
2013-04-28 08:35:00,51.2,48.1,29.90,SSE,167,0.0,0.0,89,0.00,,,0.00,Wunderground v.1.15,2013-04-28 13:35:00,
2013-04-28 08:41:00,51.6,48.5,29.90,SSW,208,0.0,0.0,89,0.00,,,0.00,Wunderground v.1.15,2013-04-28 13:41:00,
2013-04-28 08:50:00,52.2,48.8,29.89,SSW,208,0.0,0.0,88,0.00,,,0.00,Wunderground v.1.15,2013-04-28 13:50:00,
2013-04-28 08:55:00,52.5,49.0,29.89,SE,133,0.0,0.0,88,0.00,,,0.00,Wunderground v.1.15,2013-04-28 13:55:00,
2013-04-28 09:05:00,53.2,49.4,29.89,SW,218,0.0,0.0,87,0.00,,,0.00,Wunderground v.1.15,2013-04-28 14:05:00,
2013-04-28 09:10:00,53.8,50.0,29.88,WSW,253,0.0,0.0,87,0.00,,,0.00,Wunderground v.1.15,2013-04-28 14:10:00,
2013-04-28 09:20:00,54.8,50.4,29.88,SSE,150,0.0,0.0,85,0.00,,,0.00,Wunderground v.1.15,2013-04-28 14:20:00,
2013-04-28 09:26:00,55.2,50.8,29.88,SSE,152,0.0,0.0,85,0.00,,,0.00,Wunderground v.1.15,2013-04-28 14:26:00,
2013-04-28 09:35:00,56.3,51.2,29.88,WSW,247,0.0,0.0,83,0.00,,,0.00,Wunderground v.1.15,2013-04-28 14:35:00,
2013-04-28 09:40:00,56.7,51.3,29.87,SSE,165,0.0,0.0,82,0.00,,,0.00,Wunderground v.1.15,2013-04-28 14:40:00,
2013-04-28 09:50:00,57.6,52.1,29.87,SE,143,0.0,0.0,82,0.00,,,0.00,Wunderground v.1.15,2013-04-28 14:50:00,
2013-04-28 09:55:00,58.1,52.0,29.87,SSE,160,0.0,0.0,80,0.00,,,0.00,Wunderground v.1.15,2013-04-28 14:55:00,
2013-04-28 10:05:00,58.9,52.4,29.86,SSW,195,0.0,0.0,79,0.00,,,0.00,Wunderground v.1.15,2013-04-28 15:05:00,
2013-04-28 10:15:00,59.9,52.7,29.86,SSW,212,0.0,0.0,77,0.00,,,0.00,Wunderground v.1.15,2013-04-28 15:15:00,
2013-04-28 10:20:00,60.5,53.3,29.85,SSE,159,0.0,0.0,77,0.00,,,0.00,Wunderground v.1.15,2013-04-28 15:20:00,
2013-04-28 10:30:00,61.2,52.8,29.85,SSW,205,0.0,0.0,74,0.00,,,0.00,Wunderground v.1.15,2013-04-28 15:30:00,
2013-04-28 10:40:00,62.2,53.1,29.85,SW,224,0.0,0.0,72,0.00,,,0.00,Wunderground v.1.15,2013-04-28 15:40:00,
2013-04-28 10:50:00,63.4,53.4,29.85,SSE,155,0.0,0.0,70,0.00,,,0.00,Wunderground v.1.15,2013-04-28 15:50:00,
2013-04-28 10:55:00,63.8,53.8,29.84,SW,217,0.0,0.0,70,0.00,,,0.00,Wunderground v.1.15,2013-04-28 15:55:00,
2013-04-28 11:05:00,64.3,53.5,29.84,South,191,0.0,0.0,68,0.00,,,0.00,Wunderground v.1.15,2013-04-28 16:05:00,
2013-04-28 11:10:00,64.6,53.8,29.84,South,174,0.0,0.0,68,0.00,,,0.00,Wunderground v.1.15,2013-04-28 16:10:00,
2013-04-28 11:20:00,65.9,54.2,29.83,South,181,0.0,0.0,66,0.00,,,0.00,Wunderground v.1.15,2013-04-28 16:20:00,
2013-04-28 11:30:00,66.6,54.0,29.83,SSE,150,0.0,0.0,64,0.00,,,0.00,Wunderground v.1.15,2013-04-28 16:30:00,
2013-04-28 11:35:00,67.4,54.4,29.83,SSE,151,1.0,2.0,63,0.00,,,0.00,Wunderground v.1.15,2013-04-28 16:35:00,
2013-04-28 11:45:00,68.5,53.1,29.83,South,172,4.0,4.0,58,0.00,,,0.00,Wunderground v.1.15,2013-04-28 16:45:00,
2013-04-28 11:55:00,69.5,53.6,29.82,SSW,212,4.0,5.0,57,0.00,,,0.00,Wunderground v.1.15,2013-04-28 16:55:00,
2013-04-28 12:05:00,70.6,53.1,29.82,South,184,3.0,7.0,54,0.00,,,0.00,Wunderground v.1.15,2013-04-28 17:05:00,
2013-04-28 12:10:00,70.8,53.3,29.82,SSE,159,4.0,4.0,54,0.00,,,0.00,Wunderground v.1.15,2013-04-28 17:10:00,
2013-04-28 12:25:00,71.9,52.2,29.81,SSE,148,3.0,5.0,50,0.00,,,0.00,Wunderground v.1.15,2013-04-28 17:25:00,
2013-04-28 12:40:00,73.2,51.8,29.81,SW,225,4.0,4.0,47,0.00,,,0.00,Wunderground v.1.15,2013-04-28 17:40:00,
2013-04-28 12:45:00,73.5,51.4,29.80,SSE,160,4.0,6.0,46,0.00,,,0.00,Wunderground v.1.15,2013-04-28 17:45:00,
2013-04-28 12:50:00,73.4,51.9,29.80,SSE,147,4.0,6.0,47,0.00,,,0.00,Wunderground v.1.15,2013-04-28 17:50:00,
2013-04-28 13:00:00,73.5,52.6,29.79,SW,221,4.0,4.0,48,0.00,,,0.00,Wunderground v.1.15,2013-04-28 18:00:00,
2013-04-28 13:10:00,74.0,51.9,29.78,SW,215,3.0,6.0,46,0.00,,,0.00,Wunderground v.1.15,2013-04-28 18:10:00,
2013-04-28 13:25:00,75.8,50.4,29.78,SSW,198,5.0,5.0,41,0.00,,,0.00,Wunderground v.1.15,2013-04-28 18:25:00,
2013-04-28 13:30:00,75.6,50.2,29.78,ESE,110,4.0,5.0,41,0.00,,,0.00,Wunderground v.1.15,2013-04-28 18:30:00,
2013-04-28 13:38:00,75.6,49.6,29.78,SSE,158,4.0,4.0,40,0.00,,,0.00,Wunderground v.1.15,2013-04-28 18:38:00,
2013-04-28 13:45:00,76.0,49.9,29.77,SE,127,5.0,5.0,40,0.00,,,0.00,Wunderground v.1.15,2013-04-28 18:45:00,
2013-04-28 13:50:00,76.1,50.7,29.77,SSW,210,5.0,5.0,41,0.00,,,0.00,Wunderground v.1.15,2013-04-28 18:50:00,
2013-04-28 13:55:00,76.1,50.0,29.77,SSW,211,4.0,5.0,40,0.00,,,0.00,Wunderground v.1.15,2013-04-28 18:55:00,
2013-04-28 14:05:00,76.9,51.4,29.77,ESE,113,5.0,6.0,41,0.00,,,0.00,Wunderground v.1.15,2013-04-28 19:05:00,
2013-04-28 14:10:00,77.4,51.2,29.77,South,177,5.0,9.0,40,0.00,,,0.00,Wunderground v.1.15,2013-04-28 19:10:00,
2013-04-28 14:20:00,78.8,48.8,29.76,SW,221,5.0,5.0,35,0.00,,,0.00,Wunderground v.1.15,2013-04-28 19:20:00,
2013-04-28 14:25:00,79.0,49.8,29.76,SW,236,5.0,8.0,36,0.00,,,0.00,Wunderground v.1.15,2013-04-28 19:25:00,
2013-04-28 14:35:00,79.4,48.6,29.75,SSE,158,5.0,6.0,34,0.00,,,0.00,Wunderground v.1.15,2013-04-28 19:35:00,
2013-04-28 14:45:00,80.0,50.6,29.75,SSE,163,5.0,5.0,36,0.00,,,0.00,Wunderground v.1.15,2013-04-28 19:45:00,
2013-04-28 14:50:00,80.4,49.5,29.75,WSW,253,5.0,5.0,34,0.00,,,0.00,Wunderground v.1.15,2013-04-28 19:50:00,
2013-04-28 15:00:00,80.5,49.5,29.75,SW,222,4.0,6.0,34,0.00,,,0.00,Wunderground v.1.15,2013-04-28 20:00:00,
2013-04-28 15:05:00,80.5,50.3,29.74,SSE,166,4.0,6.0,35,0.00,,,0.00,Wunderground v.1.15,2013-04-28 20:05:00,
2013-04-28 15:15:00,80.8,49.0,29.74,SW,214,4.0,4.0,33,0.00,,,0.00,Wunderground v.1.15,2013-04-28 20:15:00,
2013-04-28 15:20:00,80.8,49.0,29.73,SSE,156,4.0,7.0,33,0.00,,,0.00,Wunderground v.1.15,2013-04-28 20:20:00,
2013-04-28 15:30:00,81.4,49.5,29.73,SSW,204,5.0,8.0,33,0.00,,,0.00,Wunderground v.1.15,2013-04-28 20:30:00,
2013-04-28 15:40:00,81.7,49.8,29.73,SE,139,4.0,5.0,33,0.00,,,0.00,Wunderground v.1.15,2013-04-28 20:40:00,
2013-04-28 15:45:00,81.5,49.6,29.73,SSW,197,5.0,5.0,33,0.00,,,0.00,Wunderground v.1.15,2013-04-28 20:45:00,
2013-04-28 15:55:00,81.6,49.7,29.72,SSW,198,4.0,5.0,33,0.00,,,0.00,Wunderground v.1.15,2013-04-28 20:55:00,
2013-04-28 16:00:00,81.4,50.3,29.72,South,173,5.0,5.0,34,0.00,,,0.00,Wunderground v.1.15,2013-04-28 21:00:00,
2013-04-28 16:05:00,81.3,51.0,29.72,South,189,4.0,5.0,35,0.00,,,0.00,Wunderground v.1.15,2013-04-28 21:05:00,
2013-04-28 16:15:00,81.0,50.8,29.71,SE,145,4.0,4.0,35,0.00,,,0.00,Wunderground v.1.15,2013-04-28 21:15:00,
2013-04-28 16:25:00,80.5,51.8,29.70,SSE,148,3.0,3.0,37,0.00,,,0.00,Wunderground v.1.15,2013-04-28 21:25:00,
2013-04-28 16:31:00,80.5,50.3,29.71,South,181,3.0,3.0,35,0.00,,,0.00,Wunderground v.1.15,2013-04-28 21:31:00,
2013-04-28 16:40:00,80.8,49.0,29.70,SSW,211,3.0,3.0,33,0.00,,,0.00,Wunderground v.1.15,2013-04-28 21:40:00,
2013-04-28 16:55:00,81.3,49.4,29.70,WSW,240,4.0,5.0,33,0.00,,,0.00,Wunderground v.1.15,2013-04-28 21:55:00,
2013-04-28 17:00:00,81.4,51.1,29.70,WSW,245,4.0,4.0,35,0.00,,,0.00,Wunderground v.1.15,2013-04-28 22:00:00,
2013-04-28 17:10:00,80.5,50.3,29.69,South,170,4.0,4.0,35,0.00,,,0.00,Wunderground v.1.15,2013-04-28 22:10:00,
2013-04-28 17:15:00,80.4,49.5,29.69,SSW,202,4.0,4.0,34,0.00,,,0.00,Wunderground v.1.15,2013-04-28 22:15:00,
2013-04-28 17:25:00,80.8,49.8,29.69,SSW,207,3.0,5.0,34,0.00,,,0.00,Wunderground v.1.15,2013-04-28 22:25:00,
2013-04-28 17:31:00,81.2,50.2,29.69,South,188,3.0,3.0,34,0.00,,,0.00,Wunderground v.1.15,2013-04-28 22:31:00,
2013-04-28 17:40:00,81.2,50.2,29.69,WSW,238,4.0,4.0,34,0.00,,,0.00,Wunderground v.1.15,2013-04-28 22:40:00,
2013-04-28 17:45:00,80.9,49.9,29.69,SSE,150,3.0,4.0,34,0.00,,,0.00,Wunderground v.1.15,2013-04-28 22:45:00,
2013-04-28 17:55:00,80.4,50.2,29.68,SSE,155,3.0,5.0,35,0.00,,,0.00,Wunderground v.1.15,2013-04-28 22:55:00,
2013-04-28 18:00:00,80.3,50.1,29.68,South,191,3.0,3.0,35,0.00,,,0.00,Wunderground v.1.15,2013-04-28 23:00:00,
2013-04-28 18:10:00,80.4,51.0,29.68,SSW,207,2.0,4.0,36,0.00,,,0.00,Wunderground v.1.15,2013-04-28 23:10:00,
2013-04-28 18:15:00,80.8,50.6,29.68,South,177,2.0,7.0,35,0.00,,,0.00,Wunderground v.1.15,2013-04-28 23:15:00,
2013-04-28 18:25:00,81.4,51.1,29.68,SSW,205,3.0,3.0,35,0.00,,,0.00,Wunderground v.1.15,2013-04-28 23:25:00,
2013-04-28 18:30:00,81.1,50.9,29.68,SW,228,3.0,3.0,35,0.00,,,0.00,Wunderground v.1.15,2013-04-28 23:30:00,
2013-04-28 18:40:00,80.6,51.9,29.67,SSE,158,3.0,5.0,37,0.00,,,0.00,Wunderground v.1.15,2013-04-28 23:40:00,
2013-04-28 18:45:00,80.3,50.9,29.67,SSW,202,3.0,3.0,36,0.00,,,0.00,Wunderground v.1.15,2013-04-28 23:45:00,
2013-04-28 18:55:00,79.5,51.7,29.67,ESE,118,3.0,3.0,38,0.00,,,0.00,Wunderground v.1.15,2013-04-28 23:55:00,
2013-04-28 19:00:00,79.1,51.3,29.67,SSW,202,3.0,3.0,38,0.00,,,0.00,Wunderground v.1.15,2013-04-29 00:00:00,
2013-04-28 19:10:00,78.6,51.6,29.67,SSE,163,2.0,2.0,39,0.00,,,0.00,Wunderground v.1.15,2013-04-29 00:10:00,
2013-04-28 19:15:00,78.3,51.3,29.67,SSE,158,2.0,2.0,39,0.00,,,0.00,Wunderground v.1.15,2013-04-29 00:15:00,
2013-04-28 19:25:00,77.8,51.5,29.67,SE,136,2.0,2.0,40,0.00,,,0.00,Wunderground v.1.15,2013-04-29 00:25:00,
2013-04-28 19:30:00,77.6,52.0,29.67,SSE,165,2.0,2.0,41,0.00,,,0.00,Wunderground v.1.15,2013-04-29 00:30:00,
2013-04-28 19:40:00,77.2,52.3,29.67,SE,141,2.0,2.0,42,0.00,,,0.00,Wunderground v.1.15,2013-04-29 00:40:00,
2013-04-28 19:45:00,76.9,52.1,29.67,SSE,156,2.0,2.0,42,0.00,,,0.00,Wunderground v.1.15,2013-04-29 00:45:00,
2013-04-28 19:55:00,76.2,52.7,29.67,SSE,160,1.0,1.0,44,0.00,,,0.00,Wunderground v.1.15,2013-04-29 00:55:00,
2013-04-28 20:00:00,75.9,52.4,29.67,SE,143,1.0,2.0,44,0.00,,,0.00,Wunderground v.1.15,2013-04-29 01:00:00,
2013-04-28 20:10:00,75.3,52.5,29.67,SE,143,2.0,2.0,45,0.00,,,0.00,Wunderground v.1.15,2013-04-29 01:10:00,
2013-04-28 20:15:00,75.0,52.8,29.67,SE,143,1.0,2.0,46,0.00,,,0.00,Wunderground v.1.15,2013-04-29 01:15:00,
2013-04-28 20:25:00,74.2,52.1,29.67,SE,143,1.0,1.0,46,0.00,,,0.00,Wunderground v.1.15,2013-04-29 01:25:00,
2013-04-28 20:35:00,73.7,52.2,29.67,SE,142,1.0,1.0,47,0.00,,,0.00,Wunderground v.1.15,2013-04-29 01:35:00,
2013-04-28 20:40:00,73.4,51.9,29.67,SE,145,1.0,1.0,47,0.00,,,0.00,Wunderground v.1.15,2013-04-29 01:40:00,
2013-04-28 20:45:00,73.0,52.1,29.68,SE,139,0.0,0.0,48,0.00,,,0.00,Wunderground v.1.15,2013-04-29 01:45:00,
2013-04-28 20:55:00,72.3,52.6,29.68,ESE,120,0.0,0.0,50,0.00,,,0.00,Wunderground v.1.15,2013-04-29 01:55:00,
2013-04-28 21:01:00,71.8,52.7,29.69,SE,132,0.0,2.0,51,0.00,,,0.00,Wunderground v.1.15,2013-04-29 02:01:00,
2013-04-28 21:10:00,71.6,53.0,29.69,SE,139,2.0,2.0,52,0.00,,,0.00,Wunderground v.1.15,2013-04-29 02:10:00,
2013-04-28 21:20:00,71.2,54.2,29.69,SE,139,2.0,2.0,55,0.00,,,0.00,Wunderground v.1.15,2013-04-29 02:20:00,
2013-04-28 21:25:00,71.0,54.0,29.69,SSE,149,2.0,2.0,55,0.00,,,0.00,Wunderground v.1.15,2013-04-29 02:25:00,
2013-04-28 21:35:00,70.6,54.6,29.70,SSE,156,2.0,2.0,57,0.00,,,0.00,Wunderground v.1.15,2013-04-29 02:35:00,
2013-04-28 21:41:00,70.3,54.8,29.70,SSE,162,2.0,2.0,58,0.00,,,0.00,Wunderground v.1.15,2013-04-29 02:41:00,
2013-04-28 21:50:00,70.1,55.1,29.70,SE,137,3.0,3.0,59,0.00,,,0.00,Wunderground v.1.15,2013-04-29 02:50:00,
2013-04-28 22:00:00,69.9,54.9,29.70,SE,142,3.0,3.0,59,0.00,,,0.00,Wunderground v.1.15,2013-04-29 03:00:00,
2013-04-28 22:05:00,69.8,55.3,29.71,SE,131,3.0,3.0,60,0.00,,,0.00,Wunderground v.1.15,2013-04-29 03:05:00,
2013-04-28 22:15:00,69.4,55.4,29.71,ESE,117,2.0,2.0,61,0.00,,,0.00,Wunderground v.1.15,2013-04-29 03:15:00,
2013-04-28 22:20:00,69.3,55.3,29.71,SSE,155,3.0,3.0,61,0.00,,,0.00,Wunderground v.1.15,2013-04-29 03:20:00,
2013-04-28 22:30:00,68.9,54.9,29.71,SSE,159,2.0,4.0,61,0.00,,,0.00,Wunderground v.1.15,2013-04-29 03:30:00,
2013-04-28 22:40:00,68.8,55.2,29.71,SSW,210,3.0,3.0,62,0.00,,,0.00,Wunderground v.1.15,2013-04-29 03:40:00,
2013-04-28 22:45:00,68.7,55.2,29.71,SE,138,3.0,3.0,62,0.00,,,0.00,Wunderground v.1.15,2013-04-29 03:45:00,
2013-04-28 22:55:00,68.3,54.8,29.71,SE,146,3.0,5.0,62,0.00,,,0.00,Wunderground v.1.15,2013-04-29 03:55:00,
2013-04-28 23:01:00,68.1,55.0,29.71,South,184,3.0,3.0,63,0.00,,,0.00,Wunderground v.1.15,2013-04-29 04:01:00,
2013-04-28 23:05:00,67.9,54.8,29.71,SE,137,2.0,3.0,63,0.00,,,0.00,Wunderground v.1.15,2013-04-29 04:05:00,
2013-04-28 23:10:00,67.8,54.7,29.71,SSE,168,2.0,2.0,63,0.00,,,0.00,Wunderground v.1.15,2013-04-29 04:10:00,
2013-04-28 23:20:00,67.4,54.8,29.72,SSE,168,2.0,2.0,64,0.00,,,0.00,Wunderground v.1.15,2013-04-29 04:20:00,
2013-04-28 23:25:00,67.2,55.0,29.72,SSE,149,2.0,2.0,65,0.00,,,0.00,Wunderground v.1.15,2013-04-29 04:25:00,
2013-04-28 23:35:00,66.8,54.7,29.72,SSE,159,2.0,2.0,65,0.00,,,0.00,Wunderground v.1.15,2013-04-29 04:35:00,
2013-04-28 23:40:00,66.5,54.8,29.72,SE,141,1.0,1.0,66,0.00,,,0.00,Wunderground v.1.15,2013-04-29 04:40:00,
2013-04-28 23:50:00,66.0,54.7,29.71,SE,139,1.0,1.0,67,0.00,,,0.00,Wunderground v.1.15,2013-04-29 04:50:00,
2013-04-28 23:55:00,65.6,54.3,29.71,SE,131,1.0,1.0,67,0.00,,,0.00,Wunderground v.1.15,2013-04-29 04:55:00,